createdAt,value
2018-11-04T00:02:25.965Z,14.20
2018-11-04T00:04:54.111Z,13.70
2018-11-04T00:07:22.278Z,13.50
2018-11-04T00:09:50.419Z,13.93
2018-11-04T00:12:18.582Z,14.03
2018-11-04T00:14:46.756Z,13.10
2018-11-04T00:17:14.886Z,13.50
2018-11-04T00:19:43.079Z,15.40
2018-11-04T00:22:11.197Z,13.50
2018-11-04T00:24:39.322Z,12.47
2018-11-04T00:27:14.174Z,12.33
2018-11-04T00:29:42.336Z,12.87
2018-11-04T00:32:10.458Z,12.67
2018-11-04T00:34:38.588Z,16.93
2018-11-04T00:37:07.066Z,12.73
2018-11-04T00:39:35.193Z,11.70
2018-11-04T00:42:03.341Z,14.90
2018-11-04T00:44:31.486Z,13.07
2018-11-04T00:46:59.597Z,13.23
2018-11-04T00:49:27.995Z,12.33
2018-11-04T00:51:56.114Z,14.00
2018-11-04T00:54:31.019Z,13.00
2018-11-04T00:56:59.145Z,13.60
2018-11-04T00:59:27.293Z,11.50
2018-11-04T01:01:55.445Z,11.90
2018-11-04T01:04:23.590Z,12.07
2018-11-04T01:06:51.725Z,12.40
2018-11-04T01:09:19.886Z,12.33
2018-11-04T01:11:48.005Z,11.17
2018-11-04T01:14:16.127Z,12.93
2018-11-04T01:16:44.253Z,14.33
2018-11-04T01:19:12.454Z,12.20
2018-11-04T01:21:40.587Z,12.10
2018-11-04T01:24:08.743Z,11.87
2018-11-04T01:26:36.863Z,13.27
2018-11-04T01:29:05.265Z,14.17
2018-11-04T01:31:33.409Z,11.97
2018-11-04T01:34:01.555Z,12.07
2018-11-04T01:36:29.691Z,11.23
2018-11-04T01:38:58.150Z,11.60
2018-11-04T01:41:26.282Z,11.20
2018-11-04T01:43:54.413Z,13.40
2018-11-04T01:46:22.550Z,14.73
2018-11-04T01:48:50.678Z,13.90
2018-11-04T01:51:18.813Z,13.83
2018-11-04T01:53:47.281Z,11.97
2018-11-04T01:56:15.405Z,12.07
2018-11-04T01:58:43.525Z,12.83
2018-11-04T02:01:11.667Z,12.07
2018-11-04T02:03:40.117Z,12.17
2018-11-04T02:06:08.249Z,15.17
2018-11-04T02:08:36.407Z,13.60
2018-11-04T02:11:04.718Z,15.63
2018-11-04T02:13:32.843Z,15.30
2018-11-04T02:16:01.003Z,13.73
2018-11-04T02:18:29.141Z,14.23
2018-11-04T02:20:57.260Z,14.87
2018-11-04T02:23:25.385Z,13.97
2018-11-04T02:25:53.565Z,14.17
2018-11-04T02:28:21.706Z,12.20
2018-11-04T02:30:49.847Z,13.23
2018-11-04T02:33:17.979Z,11.77
2018-11-04T02:35:46.130Z,12.43
2018-11-04T02:38:14.581Z,14.60
2018-11-04T02:40:42.755Z,14.40
2018-11-04T02:43:10.882Z,13.93
2018-11-04T02:45:39.034Z,14.07
2018-11-04T02:48:07.159Z,16.47
2018-11-04T02:50:35.285Z,14.43
2018-11-04T02:53:03.439Z,15.50
2018-11-04T02:55:31.551Z,13.57
2018-11-04T02:57:59.691Z,14.93
2018-11-04T03:00:27.813Z,19.60
2018-11-04T03:02:55.962Z,13.47
2018-11-04T03:05:24.102Z,14.47
2018-11-04T03:07:52.226Z,13.37
2018-11-04T03:10:20.369Z,14.87
2018-11-04T03:12:48.512Z,14.00
2018-11-04T03:15:16.650Z,15.67
2018-11-04T03:17:44.805Z,15.97
2018-11-04T03:20:12.955Z,15.50
2018-11-04T03:22:41.201Z,16.53
2018-11-04T03:25:09.322Z,15.47
2018-11-04T03:27:37.470Z,14.03
2018-11-04T03:30:06.782Z,13.97
2018-11-04T03:32:34.917Z,13.67
2018-11-04T03:35:03.053Z,15.83
2018-11-04T03:37:31.191Z,15.00
2018-11-04T03:39:59.310Z,15.30
2018-11-04T03:42:27.459Z,15.97
2018-11-04T03:44:55.605Z,13.77
2018-11-04T03:47:23.780Z,15.13
2018-11-04T03:49:51.897Z,12.97
2018-11-04T03:52:20.030Z,14.30
2018-11-04T03:54:48.184Z,14.97
2018-11-04T03:57:16.315Z,17.03
2018-11-04T03:59:44.454Z,15.53
2018-11-04T04:02:12.570Z,15.47
2018-11-04T04:04:40.719Z,15.17
2018-11-04T04:07:08.836Z,14.43
2018-11-04T04:09:36.975Z,14.80
2018-11-04T04:12:05.733Z,13.70
2018-11-04T04:14:34.199Z,15.60
2018-11-04T04:17:02.352Z,15.97
2018-11-04T04:19:30.482Z,15.77
2018-11-04T04:21:58.620Z,13.67
2018-11-04T04:24:27.054Z,16.63
2018-11-04T04:26:55.180Z,15.70
2018-11-04T04:29:23.429Z,14.57
2018-11-04T04:31:51.599Z,14.03
2018-11-04T04:34:19.722Z,16.70
2018-11-04T04:36:47.857Z,19.80
2018-11-04T04:39:16.010Z,16.23
2018-11-04T04:41:44.161Z,19.27
2018-11-04T04:44:12.319Z,17.23
2018-11-04T04:46:40.439Z,15.43
2018-11-04T04:49:08.578Z,16.03
2018-11-04T04:51:36.710Z,16.00
2018-11-04T04:54:05.346Z,14.80
2018-11-04T04:56:33.469Z,14.30
2018-11-04T04:59:01.607Z,17.53
2018-11-04T05:01:30.086Z,16.37
2018-11-04T05:03:58.230Z,17.33
2018-11-04T05:06:26.850Z,19.00
2018-11-04T05:08:55.298Z,17.07
2018-11-04T05:11:23.571Z,16.80
2018-11-04T05:13:51.982Z,17.87
2018-11-04T05:16:20.127Z,18.60
2018-11-04T05:18:48.245Z,17.73
2018-11-04T05:21:16.402Z,17.00
2018-11-04T05:23:44.545Z,17.87
2018-11-04T05:26:12.969Z,19.30
2018-11-04T05:28:41.093Z,17.53
2018-11-04T05:31:09.219Z,18.50
2018-11-04T05:33:37.361Z,18.53
2018-11-04T05:36:05.501Z,18.80
2018-11-04T05:38:33.639Z,20.57
2018-11-04T05:41:01.785Z,19.60
2018-11-04T05:43:29.936Z,19.40
2018-11-04T05:45:58.274Z,18.63
2018-11-04T05:48:26.403Z,17.97
2018-11-04T05:50:54.530Z,20.60
2018-11-04T05:53:22.675Z,26.97
2018-11-04T05:55:50.806Z,24.83
2018-11-04T05:58:18.941Z,23.03
2018-11-04T06:00:47.080Z,21.57
2018-11-04T06:03:15.536Z,23.20
2018-11-04T06:05:43.682Z,21.40
2018-11-04T06:08:11.842Z,19.57
2018-11-04T06:10:39.970Z,24.40
2018-11-04T06:13:08.121Z,27.03
2018-11-04T06:15:36.238Z,25.00
2018-11-04T06:18:04.407Z,25.80
2018-11-04T06:20:32.554Z,29.67
2018-11-04T06:23:00.690Z,27.13
2018-11-04T06:25:28.825Z,25.80
2018-11-04T06:27:56.961Z,29.77
2018-11-04T06:30:25.111Z,29.67
2018-11-04T06:32:53.268Z,30.17
2018-11-04T06:35:21.405Z,30.97
2018-11-04T06:37:49.533Z,28.53
2018-11-04T06:40:24.461Z,30.17
2018-11-04T06:42:52.606Z,31.27
2018-11-04T06:45:20.745Z,30.53
2018-11-04T06:47:48.886Z,28.57
2018-11-04T06:50:17.091Z,27.47
2018-11-04T06:52:45.211Z,28.63
2018-11-04T06:55:13.353Z,27.67
2018-11-04T06:57:41.826Z,27.77
2018-11-04T07:00:11.063Z,25.40
2018-11-04T07:02:39.627Z,30.10
2018-11-04T07:05:07.802Z,30.27
2018-11-04T07:07:35.954Z,29.30
2018-11-04T07:10:04.306Z,25.07
2018-11-04T07:12:32.742Z,25.53
2018-11-04T07:15:00.865Z,29.80
2018-11-04T07:17:28.985Z,27.73
2018-11-04T07:19:57.191Z,33.43
2018-11-04T07:22:25.295Z,32.63
2018-11-04T07:24:53.452Z,28.73
2018-11-04T07:27:21.599Z,28.40
2018-11-04T07:29:49.726Z,29.80
2018-11-04T07:32:17.887Z,29.63
2018-11-04T07:34:46.341Z,27.57
2018-11-04T07:37:14.471Z,31.67
2018-11-04T07:39:42.603Z,27.93
2018-11-04T07:42:10.744Z,29.13
2018-11-04T07:44:38.875Z,28.77
2018-11-04T07:47:07.050Z,28.40
2018-11-04T07:49:35.169Z,30.30
2018-11-04T07:52:03.298Z,25.33
2018-11-04T07:54:31.465Z,28.73
2018-11-04T07:56:59.620Z,26.43
2018-11-04T07:59:27.789Z,30.33
2018-11-04T08:01:55.926Z,30.37
2018-11-04T08:04:24.071Z,27.23
2018-11-04T08:06:52.212Z,28.60
2018-11-04T08:09:20.354Z,29.37
2018-11-04T08:11:48.505Z,27.33
2018-11-04T08:14:16.655Z,26.80
2018-11-04T08:16:44.761Z,26.43
2018-11-04T08:19:15.169Z,27.20
2018-11-04T08:21:43.465Z,25.53
2018-11-04T08:24:11.666Z,24.80
2018-11-04T08:26:39.862Z,26.17
2018-11-04T08:29:08.024Z,27.47
2018-11-04T08:31:36.170Z,25.30
2018-11-04T08:34:04.470Z,23.20
2018-11-04T08:36:32.832Z,25.30
2018-11-04T08:39:01.022Z,23.13
2018-11-04T08:41:29.202Z,21.40
2018-11-04T08:43:57.465Z,21.93
2018-11-04T08:46:25.611Z,22.00
2018-11-04T08:48:53.736Z,24.83
2018-11-04T08:51:21.913Z,21.70
2018-11-04T08:53:50.063Z,22.13
2018-11-04T08:56:18.973Z,20.33
2018-11-04T08:58:47.126Z,23.07
2018-11-04T09:01:16.386Z,24.17
2018-11-04T09:03:44.537Z,23.20
2018-11-04T09:06:12.686Z,23.47
2018-11-04T09:08:40.853Z,24.17
2018-11-04T09:11:08.993Z,23.20
2018-11-04T09:13:39.035Z,21.40
2018-11-04T09:16:07.178Z,20.80
2018-11-04T09:18:35.328Z,21.53
2018-11-04T09:21:03.475Z,19.87
2018-11-04T09:23:31.629Z,21.50
2018-11-04T09:25:59.798Z,24.30
2018-11-04T09:28:27.942Z,22.40
2018-11-04T09:30:56.090Z,17.60
2018-11-04T09:33:24.241Z,19.47
2018-11-04T09:35:52.513Z,19.03
2018-11-04T09:38:20.523Z,18.30
2018-11-04T09:40:48.672Z,18.97
2018-11-04T09:43:16.793Z,20.93
2018-11-04T09:45:44.969Z,21.43
2018-11-04T09:48:13.101Z,19.43
2018-11-04T09:50:41.244Z,19.20
2018-11-04T09:53:09.392Z,21.40
2018-11-04T09:55:37.551Z,19.37
2018-11-04T09:58:08.750Z,20.03
2018-11-04T10:00:36.897Z,19.10
2018-11-04T10:03:05.420Z,20.33
2018-11-04T10:05:33.573Z,19.93
2018-11-04T10:08:01.819Z,20.63
2018-11-04T10:10:30.014Z,21.40
2018-11-04T10:12:58.451Z,19.57
2018-11-04T10:15:26.605Z,19.57
2018-11-04T10:17:54.773Z,22.23
2018-11-04T10:20:23.094Z,18.07
2018-11-04T10:22:51.072Z,21.00
2018-11-04T10:25:19.248Z,21.97
2018-11-04T10:27:47.398Z,22.40
2018-11-04T10:30:16.675Z,22.27
2018-11-04T10:32:44.998Z,20.83
2018-11-04T10:35:13.174Z,24.10
2018-11-04T10:37:41.959Z,24.23
2018-11-04T10:40:11.297Z,22.10
2018-11-04T10:42:39.445Z,24.87
2018-11-04T10:45:08.534Z,24.73
2018-11-04T10:47:36.701Z,26.50
2018-11-04T10:50:06.345Z,26.53
2018-11-04T10:52:34.502Z,29.13
2018-11-04T10:55:02.674Z,29.30
2018-11-04T10:57:30.830Z,28.03
2018-11-04T10:59:59.010Z,27.23
2018-11-04T11:02:27.186Z,26.57
2018-11-04T11:04:55.359Z,26.43
2018-11-04T11:07:23.568Z,27.43
2018-11-04T11:09:51.737Z,26.00
2018-11-04T11:12:19.883Z,25.00
2018-11-04T11:14:48.088Z,27.10
2018-11-04T11:17:16.221Z,26.43
2018-11-04T11:19:44.381Z,24.80
2018-11-04T11:22:12.546Z,27.03
2018-11-04T11:24:40.705Z,26.10
2018-11-04T11:27:08.896Z,24.07
2018-11-04T11:29:37.086Z,27.00
2018-11-04T11:32:05.344Z,26.33
2018-11-04T11:34:33.470Z,25.37
2018-11-04T11:37:01.633Z,24.33
2018-11-04T11:39:29.838Z,26.17
2018-11-04T11:41:58.022Z,25.97
2018-11-04T11:44:26.202Z,24.63
2018-11-04T11:46:54.369Z,24.60
2018-11-04T11:49:22.610Z,24.83
2018-11-04T11:51:50.801Z,25.33
2018-11-04T11:54:18.957Z,25.07
2018-11-04T11:56:47.371Z,23.53
2018-11-04T11:59:15.519Z,24.20
2018-11-04T12:01:43.713Z,24.97
2018-11-04T12:04:12.137Z,22.97
2018-11-04T12:06:40.354Z,24.30
2018-11-04T12:09:09.149Z,21.17
2018-11-04T12:11:37.675Z,23.10
2018-11-04T12:14:05.890Z,24.13
2018-11-04T12:16:34.031Z,22.60
2018-11-04T12:19:02.208Z,21.77
2018-11-04T12:21:30.445Z,22.87
2018-11-04T12:23:58.585Z,22.77
2018-11-04T12:26:26.760Z,22.67
2018-11-04T12:28:54.917Z,22.90
2018-11-04T12:31:23.142Z,21.00
2018-11-04T12:33:51.321Z,20.33
2018-11-04T12:36:19.588Z,21.23
2018-11-04T12:38:47.758Z,19.90
2018-11-04T12:41:15.893Z,18.73
2018-11-04T12:43:44.057Z,18.27
2018-11-04T12:46:12.299Z,18.30
2018-11-04T12:48:40.747Z,21.87
2018-11-04T12:51:09.016Z,18.97
2018-11-04T12:53:37.171Z,19.30
2018-11-04T12:56:05.647Z,19.73
2018-11-04T12:58:33.833Z,18.30
2018-11-04T13:01:01.979Z,19.37
2018-11-04T13:03:30.153Z,20.07
2018-11-04T13:05:58.339Z,18.37
2018-11-04T13:08:26.473Z,18.63
2018-11-04T13:10:54.660Z,17.30
2018-11-04T13:13:22.798Z,17.20
2018-11-04T13:15:50.954Z,19.07
2018-11-04T13:18:19.093Z,18.50
2018-11-04T13:20:47.242Z,17.03
2018-11-04T13:23:15.422Z,17.60
2018-11-04T13:25:43.565Z,17.67
2018-11-04T13:28:11.750Z,19.67
2018-11-04T13:30:39.918Z,16.60
2018-11-04T13:33:08.073Z,17.00
2018-11-04T13:35:36.218Z,15.03
2018-11-04T13:38:04.395Z,16.30
2018-11-04T13:40:32.555Z,14.77
2018-11-04T13:43:00.786Z,17.43
2018-11-04T13:45:29.099Z,15.50
2018-11-04T13:47:57.261Z,14.10
2018-11-04T13:50:25.434Z,17.00
2018-11-04T13:52:53.589Z,13.47
2018-11-04T13:55:21.709Z,13.60
2018-11-04T13:57:49.885Z,14.37
2018-11-04T14:00:18.241Z,15.73
2018-11-04T14:02:47.753Z,15.70
2018-11-04T14:05:15.925Z,14.63
2018-11-04T14:07:44.090Z,14.87
2018-11-04T14:10:13.708Z,15.27
2018-11-04T14:12:42.623Z,15.43
2018-11-04T14:15:11.070Z,15.27
2018-11-04T14:17:40.161Z,13.77
2018-11-04T14:20:09.467Z,16.00
2018-11-04T14:22:37.821Z,16.07
2018-11-04T14:25:06.691Z,14.93
2018-11-04T14:27:34.880Z,15.83
2018-11-04T14:30:03.058Z,16.63
2018-11-04T14:32:31.219Z,15.73
2018-11-04T14:34:59.450Z,15.43
2018-11-04T14:37:27.627Z,16.03
2018-11-04T14:39:55.762Z,17.07
2018-11-04T14:42:23.927Z,15.73
2018-11-04T14:44:52.117Z,18.37
2018-11-04T14:47:20.248Z,16.50
2018-11-04T14:49:48.409Z,17.03
2018-11-04T14:52:16.582Z,16.77
2018-11-04T14:54:44.731Z,17.63
2018-11-04T14:57:12.898Z,19.37
2018-11-04T14:59:41.112Z,17.60
2018-11-04T15:02:09.218Z,18.63
2018-11-04T15:04:37.369Z,19.77
2018-11-04T15:07:06.151Z,16.87
2018-11-04T15:09:34.327Z,18.47
2018-11-04T15:12:02.519Z,18.03
2018-11-04T15:14:30.694Z,19.47
2018-11-04T15:16:58.833Z,19.90
2018-11-04T15:19:26.973Z,20.10
2018-11-04T15:21:55.175Z,21.33
2018-11-04T15:24:23.487Z,16.57
2018-11-04T15:26:51.695Z,19.50
2018-11-04T15:29:19.846Z,20.70
2018-11-04T15:31:48.071Z,20.70
2018-11-04T15:34:16.297Z,21.53
2018-11-04T15:36:44.414Z,19.77
2018-11-04T15:39:30.029Z,22.27
2018-11-04T15:41:58.174Z,21.23
2018-11-04T15:44:29.831Z,22.50
2018-11-04T15:46:57.991Z,19.40
2018-11-04T15:49:26.113Z,23.33
2018-11-04T15:51:54.953Z,23.27
2018-11-04T15:54:23.180Z,21.67
2018-11-04T15:56:51.352Z,22.57
2018-11-04T15:59:19.539Z,21.93
2018-11-04T16:01:47.702Z,22.40
2018-11-04T16:04:15.940Z,23.10
2018-11-04T16:06:44.030Z,21.47
2018-11-04T16:09:12.201Z,20.73
2018-11-04T16:11:40.343Z,19.47
2018-11-04T16:14:08.497Z,22.90
2018-11-04T16:16:36.662Z,23.07
2018-11-04T16:19:04.802Z,21.70
2018-11-04T16:21:32.970Z,23.63
2018-11-04T16:24:01.137Z,20.23
2018-11-04T16:26:29.330Z,22.57
2018-11-04T16:28:57.611Z,22.27
2018-11-04T16:31:25.750Z,21.17
2018-11-04T16:33:53.935Z,19.43
2018-11-04T16:36:22.062Z,23.07
2018-11-04T16:38:50.250Z,24.63
2018-11-04T16:41:18.627Z,21.10
2018-11-04T16:43:46.843Z,22.87
2018-11-04T16:46:14.968Z,20.33
2018-11-04T16:48:43.157Z,23.13
2018-11-04T16:51:11.455Z,21.33
2018-11-04T16:53:39.637Z,20.43
2018-11-04T16:56:07.995Z,21.20
2018-11-04T16:58:36.287Z,20.60
2018-11-04T17:01:05.010Z,21.03
2018-11-04T17:03:33.195Z,22.57
2018-11-04T17:06:01.394Z,20.40
2018-11-04T17:08:29.555Z,21.13
2018-11-04T17:10:57.975Z,30.93
2018-11-04T17:13:26.270Z,24.93
2018-11-04T17:15:54.489Z,22.03
2018-11-04T17:18:23.101Z,23.53
2018-11-04T17:20:51.319Z,21.53
2018-11-04T17:23:19.832Z,21.63
2018-11-04T17:25:47.996Z,23.87
2018-11-04T17:28:16.220Z,23.03
2018-11-04T17:30:44.393Z,22.40
2018-11-04T17:33:12.547Z,20.97
2018-11-04T17:35:40.693Z,22.20
2018-11-04T17:38:08.959Z,21.13
2018-11-04T17:40:37.122Z,21.77
2018-11-04T17:43:05.597Z,23.30
2018-11-04T17:45:33.842Z,25.10
2018-11-04T17:48:07.086Z,23.73
2018-11-04T17:50:35.342Z,24.73
2018-11-04T17:53:03.579Z,32.17
2018-11-04T17:55:42.683Z,27.20
2018-11-04T17:58:10.842Z,23.03
2018-11-04T18:00:39.078Z,24.63
2018-11-04T18:03:07.213Z,24.77
2018-11-04T18:05:35.426Z,23.23
2018-11-04T18:08:03.710Z,24.03
2018-11-04T18:10:31.983Z,20.80
2018-11-04T18:13:03.389Z,22.17
2018-11-04T18:15:31.897Z,24.23
2018-11-04T18:18:00.068Z,22.37
2018-11-04T18:20:28.354Z,23.40
2018-11-04T18:22:56.782Z,22.33
2018-11-04T18:25:24.946Z,24.20
2018-11-04T18:27:53.095Z,23.93
2018-11-04T18:30:21.246Z,22.97
2018-11-04T18:32:49.399Z,29.80
2018-11-04T18:35:17.573Z,27.77
2018-11-04T18:37:45.727Z,24.53
2018-11-04T18:40:15.450Z,21.50
2018-11-04T18:42:44.249Z,21.57
2018-11-04T18:45:13.814Z,26.23
2018-11-04T18:47:42.447Z,23.70
2018-11-04T18:50:11.908Z,23.20
2018-11-04T18:52:40.118Z,22.27
2018-11-04T18:55:09.350Z,26.00
2018-11-04T18:57:37.554Z,22.80
2018-11-04T19:00:07.670Z,26.30
2018-11-04T19:02:35.825Z,23.37
2018-11-04T19:05:04.302Z,23.67
2018-11-04T19:07:32.492Z,27.10
2018-11-04T19:10:00.676Z,25.30
2018-11-04T19:12:28.843Z,27.73
2018-11-04T19:14:56.974Z,27.37
2018-11-04T19:17:25.137Z,23.70
2018-11-04T19:19:53.311Z,19.87
2018-11-04T19:22:21.490Z,26.53
2018-11-04T19:24:49.684Z,27.47
2018-11-04T19:27:26.325Z,27.07
2018-11-04T19:29:54.938Z,23.43
2018-11-04T19:32:23.277Z,25.97
2018-11-04T19:34:51.447Z,26.47
2018-11-04T19:37:19.665Z,24.57
2018-11-04T19:39:47.795Z,27.30
2018-11-04T19:42:16.006Z,23.37
2018-11-04T19:44:44.149Z,25.33
2018-11-04T19:47:12.347Z,25.00
2018-11-04T19:49:41.474Z,24.40
2018-11-04T19:52:09.677Z,23.87
2018-11-04T19:54:37.861Z,26.60
2018-11-04T19:57:06.388Z,23.80
2018-11-04T19:59:34.774Z,21.00
2018-11-04T20:02:02.955Z,28.73
2018-11-04T20:04:31.095Z,22.47
2018-11-04T20:06:59.290Z,24.20
2018-11-04T20:09:27.509Z,23.07
2018-11-04T20:11:55.988Z,25.17
2018-11-04T20:14:24.669Z,24.17
2018-11-04T20:16:54.206Z,23.33
2018-11-04T20:19:27.702Z,26.77
2018-11-04T20:21:56.250Z,25.00
2018-11-04T20:24:29.758Z,25.20
2018-11-04T20:26:57.902Z,24.80
2018-11-04T20:29:27.033Z,23.93
2018-11-04T20:32:00.681Z,23.00
2018-11-04T20:34:28.859Z,24.70
2018-11-04T20:36:57.007Z,23.00
2018-11-04T20:39:30.778Z,22.83
2018-11-04T20:41:58.919Z,25.30
2018-11-04T20:44:27.058Z,26.87
2018-11-04T20:46:55.241Z,23.90
2018-11-04T20:49:28.923Z,22.40
2018-11-04T20:51:57.105Z,24.70
2018-11-04T20:54:25.241Z,27.40
2018-11-04T20:56:58.864Z,23.07
2018-11-04T20:59:27.041Z,24.30
2018-11-04T21:01:55.229Z,20.67
2018-11-04T21:04:23.370Z,21.63
2018-11-04T21:06:51.553Z,21.37
2018-11-04T21:09:19.689Z,23.97
2018-11-04T21:11:48.634Z,23.10
2018-11-04T21:14:16.846Z,25.53
2018-11-04T21:16:45.121Z,28.77
2018-11-04T21:19:13.122Z,25.20
2018-11-04T21:21:41.305Z,27.03
2018-11-04T21:24:09.399Z,26.10
2018-11-04T21:26:37.533Z,23.50
2018-11-04T21:29:05.859Z,26.53
2018-11-04T21:31:33.799Z,26.70
2018-11-04T21:34:01.950Z,26.53
2018-11-04T21:36:30.195Z,29.63
2018-11-04T21:38:58.266Z,28.47
2018-11-04T21:41:26.416Z,27.60
2018-11-04T21:43:54.723Z,24.90
2018-11-04T21:46:22.717Z,25.23
2018-11-04T21:48:50.905Z,21.37
2018-11-04T21:51:19.059Z,24.57
2018-11-04T21:53:47.193Z,27.60
2018-11-04T21:56:15.469Z,28.47
2018-11-04T21:58:43.507Z,27.13
2018-11-04T22:01:11.613Z,31.13
2018-11-04T22:03:39.830Z,28.43
2018-11-04T22:06:07.970Z,29.07
2018-11-04T22:08:36.101Z,23.97
2018-11-04T22:11:04.266Z,29.07
2018-11-04T22:13:32.427Z,31.07
2018-11-04T22:16:00.557Z,28.53
2018-11-04T22:18:28.728Z,29.13
2018-11-04T22:20:56.854Z,27.33
2018-11-04T22:23:25.150Z,29.83
2018-11-04T22:25:53.294Z,27.50
2018-11-04T22:28:21.456Z,28.50
2018-11-04T22:30:49.622Z,28.60
2018-11-04T22:33:17.783Z,33.83
2018-11-04T22:35:45.922Z,36.97
2018-11-04T22:38:14.086Z,28.87
2018-11-04T22:40:42.211Z,30.00
2018-11-04T22:43:10.373Z,33.63
2018-11-04T22:45:38.539Z,29.10
2018-11-04T22:48:06.676Z,27.77
2018-11-04T22:50:34.917Z,29.57
2018-11-04T22:53:03.083Z,28.93
2018-11-04T22:55:31.241Z,28.50
2018-11-04T22:58:06.417Z,30.93
2018-11-04T23:00:40.255Z,26.70
2018-11-04T23:03:08.563Z,26.63
2018-11-04T23:05:36.748Z,27.23
2018-11-04T23:10:30.681Z,28.03
2018-11-04T23:12:58.870Z,33.20
2018-11-04T23:15:27.118Z,24.53
2018-11-04T23:17:55.258Z,25.63
2018-11-04T23:20:23.475Z,27.27
2018-11-04T23:22:51.592Z,20.67
2018-11-04T23:25:19.772Z,28.80
2018-11-04T23:27:47.926Z,24.17
2018-11-04T23:30:17.392Z,22.37
2018-11-04T23:32:46.215Z,22.77
2018-11-04T23:35:14.394Z,23.87
2018-11-04T23:37:43.325Z,24.63
2018-11-04T23:40:11.761Z,30.50
2018-11-04T23:42:40.016Z,26.37
2018-11-04T23:45:09.478Z,29.07
2018-11-04T23:47:37.734Z,26.00
2018-11-04T23:50:07.894Z,24.77
2018-11-04T23:52:36.046Z,27.97
2018-11-04T23:55:04.342Z,27.67
2018-11-04T23:57:32.481Z,24.43
